Pays
Station

 

Conditions  météo  pour  Silver Bay  -  Etats-Unis    Etats-Unis

  
-11 °C
    
 
 

METAR pour Silver Bay :

KBFW 200914Z AUTO 02006G14KT 1 1/2SM -SN OVC012 M11/M12 A2991 RMK AO2

 

Voici le bulletin pour Silver Bay - Etats-Unis.
 
Le bulletin a été fait il y a 14 heures et 51 minutes, à 09:14 UTC .
Le vent soufflait à la vitesse de 3.1 mètres par seconde avec des rafales jusqu'à 7.2 mètres par seconde de Nord/Nord-est (020°).
 
La température était de -11 °C, avec un point de rosée à -12 °C.
La température ressentie était de -16 °C.
 
La pression atmosphérique était de 1013 hPa.
L'humidité relative était de 92.3%.
 
Le ciel était nuageux à partir d'une hauteur de 366 mètres
 
La visibilité globale était de 2414 mètres.
 
Actuellement léger/legère neige.

 
 
 

Pays :   A   B   C   D   E   F   G   H   I   J   K   L   M   N   O   P   Q   R   S   T   U   V   W   Y   Z

 

Partenaires :  Info Météo avec Met'info
Météo Marine avec MeteoMarine.net
Infos Site  |  Infos Légales  |  Crédits  |  Confidentialité
Contactez-nous  |  Ajouter aux favoris
© 2013-2018 METAR - Tous droits réservés